Time;durP1;ratioP1;P1;durP2;ratioP2;P2;SDS_P1;SDS_P2;PMS_P1;PMS_P2;Temp;Humidity;BMP_temperature;BMP_pressure;BME280_temperature;BME280_humidity;BME280_pressure;Samples;Min_cycle;Max_cycle;Signal;HPM_P1;HPM_P2
2021/05/30 08:51:01;;;;;;;15.45;5.97;;;;;;;21.59;46.24;102217.28;4699781;27;10001981;-24
2021/05/30 08:53:27;;;;;;;15.20;6.25;;;;;;;23.81;43.08;102211.56;5049454;28;20033;-24
2021/05/30 08:55:52;;;;;;;16.10;5.13;;;;;;;25.36;38.83;102206.06;5044947;28;20488;-23
2021/05/30 08:58:18;;;;;;;12.57;4.65;;;;;;;27.55;35.12;102205.97;5048155;28;20084;-29
2021/05/30 09:00:43;;;;;;;12.40;4.30;;;;;;;29.38;30.81;102209.56;5046013;28;20037;-25
2021/05/30 09:03:16;;;;;;;11.18;4.45;;;;;;;30.47;28.88;102207.06;5050890;28;20030;-24
2021/05/30 09:05:42;;;;;;;12.20;4.80;;;;;;;30.80;27.93;102205.25;5040743;28;20029;-26
2021/05/30 09:08:08;;;;;;;20.08;18.08;;;;;;;31.23;26.68;102208.66;5060151;28;20663;-23
2021/05/30 09:10:35;;;;;;;9.77;4.20;;;;;;;31.40;25.87;102198.63;5049163;28;20137;-24
2021/05/30 09:13:15;;;;;;;12.43;5.45;;;;;;;29.52;25.84;102201.69;5049843;28;20031;-23
2021/05/30 09:18:33;;;;;;;11.55;7.75;;;;;;;27.86;31.45;102205.75;5034500;28;20044;-24
2021/05/30 09:21:00;;;;;;;9.98;5.03;;;;;;;27.32;28.64;102199.25;5034125;28;20037;-24
2021/05/30 09:23:29;;;;;;;8.52;4.00;;;;;;;28.52;29.90;102202.88;5038645;28;20024;-25
2021/05/30 09:26:20;;;;;;;9.15;4.47;;;;;;;26.74;30.13;102199.25;5032900;28;20028;-25
2021/05/30 09:29:06;;;;;;;11.10;4.35;;;;;;;26.58;30.13;102197.09;5021092;28;20037;-24
2021/05/30 09:31:33;;;;;;;14.20;12.75;;;;;;;27.85;30.74;102194.09;5026227;28;20041;-25
2021/05/30 09:33:58;;;;;;;9.27;5.10;;;;;;;27.56;28.24;102194.19;5037881;28;20109;-25
2021/05/30 09:36:23;;;;;;;8.43;4.47;;;;;;;25.83;31.09;102195.72;5042358;28;20168;-25
2021/05/30 09:39:04;;;;;;;10.10;5.00;;;;;;;26.55;33.85;102192.84;5042424;28;20048;-33
2021/05/30 09:41:29;;;;;;;8.75;3.95;;;;;;;28.68;28.22;102188.63;5039254;28;20503;-26
2021/05/30 09:43:55;;;;;;;9.63;4.70;;;;;;;30.13;27.37;102183.53;5045718;28;20152;-25
2021/05/30 09:46:22;;;;;;;9.75;4.68;;;;;;;30.75;24.97;102188.59;5045122;28;20068;-25
2021/05/30 09:48:53;;;;;;;36.15;33.58;;;;;;;30.90;25.47;102191.50;5045173;28;20038;-25
2021/05/30 09:51:30;;;;;;;8.70;3.53;;;;;;;30.81;26.11;102187.97;5055863;28;20090;-26
2021/05/30 09:54:18;;;;;;;10.80;3.33;;;;;;;32.07;24.36;102165.63;5045681;28;20034;-23
2021/05/30 09:56:48;;;;;;;12.27;9.20;;;;;;;32.29;24.12;102191.19;5049584;28;20016;-23
2021/05/30 09:59:15;;;;;;;8.23;3.85;;;;;;;32.55;23.45;102191.72;5038304;28;20302;-23
2021/05/30 10:01:57;;;;;;;21.48;19.67;;;;;;;32.28;24.01;102189.50;5026710;28;20203;-24
2021/05/30 10:04:24;;;;;;;8.70;3.40;;;;;;;32.80;22.95;102189.66;5034145;28;20098;-26
2021/05/30 10:06:51;;;;;;;13.38;10.27;;;;;;;32.06;24.41;102189.25;5013576;28;20465;-29
2021/05/30 10:09:16;;;;;;;7.40;2.78;;;;;;;32.66;23.61;102185.00;5011196;28;20160;-28
2021/05/30 10:11:42;;;;;;;7.25;2.58;;;;;;;33.11;23.71;102188.72;5020395;28;20854;-24
2021/05/30 10:14:08;;;;;;;9.07;8.15;;;;;;;33.39;23.60;102185.38;5028367;28;20740;-24
2021/05/30 10:16:35;;;;;;;12.05;3.00;;;;;;;33.44;23.00;102186.53;5025545;28;20044;-24
2021/05/30 10:19:15;;;;;;;9.23;3.40;;;;;;;33.42;23.36;102183.13;5042884;28;20125;-24
2021/05/30 10:21:49;;;;;;;5.93;2.83;;;;;;;33.49;22.89;102186.00;5028677;28;20766;-28
2021/05/30 10:24:17;;;;;;;7.18;4.13;;;;;;;33.60;22.13;102190.97;5022060;28;20782;-24
2021/05/30 10:26:42;;;;;;;6.55;2.40;;;;;;;32.11;23.48;102174.28;5017131;28;20046;-25
2021/05/30 10:29:16;;;;;;;8.82;4.63;;;;;;;31.62;25.21;102178.88;5037206;28;20170;-24
2021/05/30 10:31:44;;;;;;;6.07;3.88;;;;;;;31.43;25.86;102183.88;5041808;28;20025;-27
2021/05/30 10:34:09;;;;;;;10.00;5.13;;;;;;;32.52;23.89;102180.34;5041186;28;20049;-25
2021/05/30 10:36:39;;;;;;;15.10;4.72;;;;;;;32.60;24.31;102172.13;5019029;28;20037;-24
2021/05/30 10:39:30;;;;;;;25.77;8.00;;;;;;;33.52;22.42;102171.97;5036580;28;20124;-25
2021/05/30 10:42:19;;;;;;;21.10;7.03;;;;;;;33.41;23.07;102178.72;5041030;28;20037;-25
2021/05/30 10:44:49;;;;;;;18.77;4.53;;;;;;;31.80;24.35;102177.81;5045541;28;20055;-24
2021/05/30 10:47:15;;;;;;;13.43;5.28;;;;;;;31.93;24.42;102179.97;5032068;28;21651;-27
2021/05/30 10:50:08;;;;;;;10.15;4.70;;;;;;;32.25;25.06;102166.22;5041483;28;20049;-25
2021/05/30 10:52:39;;;;;;;13.10;4.18;;;;;;;32.67;23.14;102167.63;5044293;28;20044;-26
2021/05/30 10:55:31;;;;;;;1999.90;999.90;;;;;;;31.89;23.08;102170.47;5048371;28;20079;-23
2021/05/30 10:57:56;;;;;;;1320.63;826.40;;;;;;;29.44;27.10;102171.84;5043139;28;20041;-27
2021/05/30 11:00:22;;;;;;;303.20;227.52;;;;;;;27.99;29.63;102181.09;5038210;28;20033;-28
2021/05/30 11:03:12;;;;;;;51.35;33.05;;;;;;;26.80;31.51;102180.63;5034173;28;20037;-25
2021/05/30 11:18:26;;;;;;;23.85;9.20;;;;;;;23.98;35.99;102129.66;5080942;27;20402;-70
2021/05/30 11:20:52;;;;;;;10.30;4.20;;;;;;;25.90;35.03;102132.25;5050360;28;20031;-70
2021/05/30 11:23:19;;;;;;;5.05;2.35;;;;;;;26.83;32.92;102115.59;5067057;28;20063;-70
2021/05/30 11:25:53;;;;;;;5.63;2.85;;;;;;;27.40;33.04;102115.66;5058550;28;20420;-70
2021/05/30 11:28:24;;;;;;;6.63;2.45;;;;;;;27.44;30.86;102102.69;5049557;28;20036;-70
2021/05/30 11:30:50;;;;;;;8.82;3.15;;;;;;;27.59;30.00;102112.00;5045638;28;20037;-70
2021/05/30 11:33:21;;;;;;;6.57;2.80;;;;;;;27.68;30.17;102113.81;5068146;28;20514;-69
2021/05/30 11:35:58;;;;;;;6.30;2.63;;;;;;;27.82;29.22;102109.78;5058737;28;20111;-69
2021/05/30 11:38:33;;;;;;;8.10;2.67;;;;;;;28.09;29.64;102111.63;5048816;28;20039;-70
2021/05/30 11:41:09;;;;;;;8.95;2.78;;;;;;;28.49;29.65;102113.91;5075567;28;20381;-71
2021/05/30 11:43:36;;;;;;;7.07;2.95;;;;;;;28.67;28.84;102105.78;5069333;28;20028;-71
2021/05/30 11:46:11;;;;;;;7.22;3.47;;;;;;;28.84;27.51;102106.75;5072326;28;20495;-70
2021/05/30 11:48:36;;;;;;;5.55;2.45;;;;;;;29.02;28.00;102110.28;5039052;28;20025;-70
2021/05/30 11:51:01;;;;;;;6.90;2.80;;;;;;;29.19;27.91;102110.41;5071030;28;20027;-70
2021/05/30 11:53:34;;;;;;;6.70;2.88;;;;;;;29.39;27.33;102111.03;5074532;28;20032;-70
2021/05/30 11:56:00;;;;;;;8.30;2.65;;;;;;;29.85;28.05;102111.63;5062976;28;20127;-69
2021/05/30 11:58:26;;;;;;;5.00;2.25;;;;;;;30.02;26.73;102104.34;5063398;28;20033;-69
2021/05/30 12:01:00;;;;;;;7.10;2.60;;;;;;;30.05;25.82;102096.75;5064575;28;20044;-68
2021/05/30 12:03:26;;;;;;;5.65;2.20;;;;;;;30.07;26.21;102097.44;5067904;28;20413;-70
2021/05/30 12:05:56;;;;;;;8.63;3.13;;;;;;;30.10;26.94;102096.25;5065457;28;20519;-70
2021/05/30 12:08:21;;;;;;;5.22;2.53;;;;;;;30.19;26.76;102103.44;5057449;28;20048;-69
2021/05/30 12:10:55;;;;;;;6.78;2.88;;;;;;;30.14;25.40;102092.19;5063840;28;20028;-69
2021/05/30 12:13:28;;;;;;;6.38;2.72;;;;;;;30.12;26.10;102089.66;5079245;28;20036;-71
2021/05/30 12:15:57;;;;;;;5.53;2.60;;;;;;;30.13;25.44;102091.34;5061139;28;20029;-70
2021/05/30 12:18:23;;;;;;;7.60;2.40;;;;;;;30.02;26.01;102094.38;5064596;28;20036;-69
2021/05/30 12:20:49;;;;;;;4.97;2.63;;;;;;;29.82;27.65;102087.56;5065502;28;20392;-69
2021/05/30 12:23:19;;;;;;;6.95;2.67;;;;;;;29.89;27.62;102094.00;5067720;28;20032;-69
2021/05/30 12:25:58;;;;;;;6.50;2.42;;;;;;;29.97;26.46;102094.00;5056676;28;20565;-69
2021/05/30 12:28:24;;;;;;;;;;;;;;;29.93;26.91;102096.22;5045961;28;20035;-69
2021/05/30 12:30:51;;;;;;;7.82;3.30;;;;;;;30.01;26.29;102079.09;5044849;28;19920;-69
2021/05/30 12:33:17;;;;;;;8.77;2.95;;;;;;;29.87;27.29;102090.59;5051448;28;20407;-68
2021/05/30 12:35:44;;;;;;;5.45;2.25;;;;;;;29.92;26.53;102086.38;5037610;28;20058;-69
2021/05/30 12:38:11;;;;;;;5.40;2.38;;;;;;;29.85;26.63;102085.34;5050736;28;20178;-70
2021/05/30 12:40:36;;;;;;;6.55;2.58;;;;;;;29.84;26.72;102086.34;5047920;28;20519;-69
2021/05/30 12:43:01;;;;;;;6.75;2.42;;;;;;;29.84;26.92;102080.94;5047452;28;20085;-69
2021/05/30 12:45:27;;;;;;;7.03;2.90;;;;;;;29.73;26.20;102081.25;5046152;28;20036;-69
2021/05/30 12:47:53;;;;;;;4.82;2.47;;;;;;;29.66;27.48;102072.06;5052161;28;20028;-69
2021/05/30 12:50:19;;;;;;;8.50;2.53;;;;;;;29.64;27.08;102077.69;5041328;28;20127;-69
2021/05/30 12:52:53;;;;;;;7.47;2.47;;;;;;;29.63;26.99;102073.25;5049825;28;20596;-69
2021/05/30 12:55:35;;;;;;;5.57;2.30;;;;;;;29.53;27.80;102065.22;5050180;28;20699;-68
2021/05/30 12:58:01;;;;;;;7.40;2.90;;;;;;;29.51;27.88;102061.84;5060117;28;20119;-69
2021/05/30 13:00:31;;;;;;;6.15;2.92;;;;;;;29.53;27.82;102059.78;5053526;28;20111;-68
2021/05/30 13:03:04;;;;;;;6.30;3.20;;;;;;;29.52;27.63;102062.69;5055761;28;20028;-69
2021/05/30 13:05:39;;;;;;;6.47;2.65;;;;;;;29.52;27.52;102070.81;5053504;28;20052;-68
2021/05/30 13:08:22;;;;;;;7.43;3.00;;;;;;;29.41;27.56;102061.13;5053302;28;20056;-69
2021/05/30 13:10:58;;;;;;;6.53;2.60;;;;;;;29.42;27.95;102064.66;5065218;28;20029;-69
2021/05/30 13:13:52;;;;;;;5.70;1.83;;;;;;;29.42;26.78;102061.97;5057456;28;20038;-69
2021/05/30 13:16:28;;;;;;;5.75;2.47;;;;;;;29.28;27.27;102060.72;5012678;28;20223;-69
2021/05/30 13:18:55;;;;;;;6.13;2.63;;;;;;;29.29;27.01;102055.13;5052971;28;20024;-67
2021/05/30 13:35:30;;;;;;;8.05;2.97;;;;;;;23.86;38.77;102126.16;5055145;28;20413;-73
2021/05/30 13:37:55;;;;;;;8.68;2.97;;;;;;;23.87;38.43;102116.28;5060243;28;20032;-72
2021/05/30 13:40:20;;;;;;;6.38;3.08;;;;;;;23.91;38.21;102116.88;5059481;28;20036;-73
2021/05/30 13:42:45;;;;;;;8.00;2.97;;;;;;;23.93;38.82;102107.72;5070364;28;20025;-72
2021/05/30 13:45:11;;;;;;;9.25;2.78;;;;;;;23.95;38.65;102113.81;5049866;28;20197;-72
2021/05/30 13:47:36;;;;;;;4.80;2.45;;;;;;;23.96;38.24;102110.13;5055340;28;20514;-72
2021/05/30 13:50:02;;;;;;;7.13;2.63;;;;;;;23.97;38.35;102116.38;5045736;28;20423;-72
2021/05/30 13:52:28;;;;;;;6.18;2.78;;;;;;;23.94;38.24;102111.25;5041702;28;20157;-73
2021/05/30 13:54:53;;;;;;;6.53;2.47;;;;;;;23.92;38.24;102103.31;5042273;28;20119;-72
2021/05/30 13:57:18;;;;;;;7.18;2.50;;;;;;;23.87;38.51;102097.47;5042575;28;20037;-72
2021/05/30 13:59:44;;;;;;;5.70;2.72;;;;;;;23.85;38.61;102102.94;5056393;28;20086;-73
2021/05/30 14:02:09;;;;;;;5.78;2.33;;;;;;;23.79;38.66;102090.00;5048795;28;20483;-70
2021/05/30 14:04:34;;;;;;;6.20;2.45;;;;;;;23.75;38.81;102099.31;5051364;28;20016;-69
2021/05/30 14:07:00;;;;;;;7.55;2.63;;;;;;;23.70;39.07;102096.16;5043764;28;20793;-70
2021/05/30 14:09:25;;;;;;;8.00;3.58;;;;;;;23.63;38.89;102098.44;5044557;28;20056;-71
2021/05/30 14:11:50;;;;;;;6.10;2.78;;;;;;;23.63;39.17;102092.22;5040986;28;20083;-70
2021/05/30 14:14:16;;;;;;;8.52;3.17;;;;;;;23.56;39.34;102094.53;5046097;28;20061;-70
2021/05/30 14:16:41;;;;;;;7.50;2.65;;;;;;;23.49;39.29;102082.59;5039245;28;20044;-71
2021/05/30 14:19:06;;;;;;;6.32;2.30;;;;;;;23.45;39.43;102088.31;5046831;28;20467;-70
2021/05/30 14:21:32;;;;;;;6.22;2.53;;;;;;;23.41;39.30;102088.53;5049652;28;20387;-70
2021/05/30 14:23:58;;;;;;;5.57;2.20;;;;;;;23.37;39.65;102076.34;5040661;28;20116;-71
2021/05/30 14:26:23;;;;;;;7.40;3.00;;;;;;;23.34;39.17;102073.06;5045153;28;20124;-70
2021/05/30 14:28:48;;;;;;;4.88;2.55;;;;;;;23.31;39.46;102070.63;5041904;28;20025;-74
2021/05/30 14:31:14;;;;;;;5.43;2.30;;;;;;;23.26;39.39;102070.16;5049430;28;20037;-72
2021/05/30 14:33:39;;;;;;;6.90;2.90;;;;;;;23.17;39.91;102060.97;5040756;28;20048;-75
2021/05/30 14:36:05;;;;;;;4.78;2.55;;;;;;;23.15;39.54;102060.25;5044111;28;20544;-73
2021/05/30 14:38:30;;;;;;;5.88;2.90;;;;;;;23.11;39.73;102061.47;5044804;28;20476;-73
2021/05/30 14:40:55;;;;;;;7.05;3.15;;;;;;;23.06;39.62;102055.63;5054272;28;20033;-74
2021/05/30 14:43:20;;;;;;;5.38;2.88;;;;;;;23.05;40.14;102051.25;5041258;28;20496;-72
2021/05/30 14:45:46;;;;;;;4.60;2.38;;;;;;;23.02;39.89;102048.78;5042516;28;20026;-71
2021/05/30 14:48:11;;;;;;;6.22;2.63;;;;;;;22.99;40.21;102043.66;5025671;28;20037;-72
2021/05/30 14:50:37;;;;;;;5.28;2.58;;;;;;;22.93;40.18;102042.31;5026700;28;20021;-72
2021/05/30 14:53:02;;;;;;;4.82;2.80;;;;;;;22.92;40.09;102038.78;5035483;28;20029;-72
2021/05/30 14:55:28;;;;;;;6.07;2.13;;;;;;;22.88;40.07;102039.09;5035095;28;20033;-71
2021/05/30 14:57:53;;;;;;;6.10;2.72;;;;;;;22.84;40.32;102029.59;5033631;28;20131;-72
2021/05/30 15:00:18;;;;;;;4.85;2.60;;;;;;;22.81;40.37;102028.00;5027821;28;20119;-73
2021/05/30 15:02:44;;;;;;;4.47;2.15;;;;;;;22.80;40.30;102044.19;5032323;28;20039;-72
2021/05/30 15:05:11;;;;;;;7.38;2.78;;;;;;;22.77;40.64;102039.06;5037996;28;20075;-73
2021/05/30 15:07:36;;;;;;;4.60;2.63;;;;;;;22.77;40.15;102036.38;5026179;28;20037;-72
2021/05/30 15:10:03;;;;;;;5.68;2.40;;;;;;;22.78;40.70;102032.75;5036844;28;20041;-71
2021/05/30 15:12:28;;;;;;;3.78;2.10;;;;;;;22.80;40.27;102025.44;5025573;28;20028;-72
2021/05/30 15:14:53;;;;;;;5.45;2.30;;;;;;;22.78;40.47;102016.69;5038049;28;20025;-71
2021/05/30 15:17:18;;;;;;;6.05;2.63;;;;;;;22.75;40.68;102027.63;5029069;28;20048;-71
2021/05/30 15:19:44;;;;;;;6.43;2.80;;;;;;;22.73;41.21;102027.72;5031358;28;20040;-71
2021/05/30 15:22:09;;;;;;;6.15;2.28;;;;;;;22.73;40.73;102024.19;5037540;28;20036;-71
2021/05/30 15:24:36;;;;;;;7.20;2.75;;;;;;;22.73;42.14;102022.38;5028288;28;20045;-72
2021/05/30 15:27:01;;;;;;;6.40;2.35;;;;;;;22.72;42.42;102012.63;5031039;28;20041;-71
2021/05/30 15:29:26;;;;;;;6.18;2.40;;;;;;;22.72;42.25;102015.31;5025899;28;20045;-71
2021/05/30 15:31:53;;;;;;;5.18;2.28;;;;;;;22.72;41.59;102009.94;5029361;28;20390;-71
2021/05/30 15:34:18;;;;;;;6.28;2.30;;;;;;;22.74;41.83;102008.03;5029585;28;20443;-71
2021/05/30 15:36:44;;;;;;;5.57;2.33;;;;;;;22.73;42.06;102005.44;5026139;28;20037;-71
2021/05/30 15:39:09;;;;;;;5.72;2.85;;;;;;;22.70;41.20;102002.03;5029360;28;20132;-71
2021/05/30 15:41:35;;;;;;;5.43;2.30;;;;;;;22.72;42.33;102007.28;5028980;28;20021;-71
